createdAt,value
2019-03-23T00:02:00.273Z,101617.88
2019-03-23T00:04:26.327Z,101609.57
2019-03-23T00:06:52.557Z,101613.55
2019-03-23T00:09:18.684Z,101612.32
2019-03-23T00:11:44.764Z,101617.26
2019-03-23T00:14:10.718Z,101616.91
2019-03-23T00:16:36.740Z,101613.80
2019-03-23T00:19:02.934Z,101622.93
2019-03-23T00:21:28.823Z,101614.05
2019-03-23T00:23:55.289Z,101619.53
2019-03-23T00:26:21.363Z,101623.33
2019-03-23T00:28:47.385Z,101620.53
2019-03-23T00:31:14.270Z,101625.59
2019-03-23T00:33:40.395Z,101621.63
2019-03-23T00:36:06.512Z,101622.00
2019-03-23T00:38:32.634Z,101630.89
2019-03-23T00:40:58.731Z,101629.95
2019-03-23T00:43:24.515Z,101635.69
2019-03-23T00:45:50.584Z,101635.20
2019-03-23T00:48:16.750Z,101636.72
2019-03-23T00:50:42.548Z,101634.84
2019-03-23T00:53:08.609Z,101630.06
2019-03-23T00:55:34.742Z,101639.23
2019-03-23T00:58:00.712Z,101637.90
2019-03-23T01:00:27.104Z,101636.95
2019-03-23T01:02:53.671Z,101627.73
2019-03-23T01:05:19.829Z,101625.57
2019-03-23T01:07:46.058Z,101625.83
2019-03-23T01:10:12.615Z,101623.33
2019-03-23T01:12:38.903Z,101622.38
2019-03-23T01:15:07.520Z,101621.89
2019-03-23T01:17:33.620Z,101619.72
2019-03-23T01:19:59.548Z,101618.14
2019-03-23T01:22:25.468Z,101622.63
2019-03-23T01:24:51.367Z,101626.13
2019-03-23T01:27:17.286Z,101624.54
2019-03-23T01:29:43.211Z,101621.84
2019-03-23T01:32:09.658Z,101624.06
2019-03-23T01:34:35.719Z,101625.71
2019-03-23T01:37:03.071Z,101628.15
2019-03-23T01:39:29.220Z,101623.80
2019-03-23T01:41:55.365Z,101622.59
2019-03-23T01:44:21.493Z,101619.42
2019-03-23T01:46:47.851Z,101620.64
2019-03-23T01:49:13.681Z,101620.00
2019-03-23T01:51:39.689Z,101624.39
2019-03-23T01:54:06.012Z,101620.53
2019-03-23T01:56:31.868Z,101615.97
2019-03-23T01:58:57.874Z,101615.07
2019-03-23T02:01:24.417Z,101615.11
2019-03-23T02:03:50.295Z,101612.09
2019-03-23T02:06:16.350Z,101614.11
2019-03-23T02:08:42.470Z,101607.44
2019-03-23T02:11:08.351Z,101607.17
2019-03-23T02:13:34.456Z,101609.56
2019-03-23T02:16:00.528Z,101607.98
2019-03-23T02:18:26.754Z,101610.14
2019-03-23T02:20:52.676Z,101604.86
2019-03-23T02:23:18.728Z,101607.66
2019-03-23T02:25:45.136Z,101607.39
2019-03-23T02:28:11.252Z,101604.31
2019-03-23T02:30:37.309Z,101606.44
2019-03-23T02:33:03.176Z,101604.53
2019-03-23T02:35:29.228Z,101603.05
2019-03-23T02:37:55.055Z,101596.42
2019-03-23T02:40:21.267Z,101604.15
2019-03-23T02:42:47.300Z,101606.16
2019-03-23T02:45:13.855Z,101601.77
2019-03-23T02:47:39.851Z,101603.83
2019-03-23T02:50:07.949Z,101598.84
2019-03-23T02:52:34.239Z,101602.03
2019-03-23T02:55:00.524Z,101606.37
2019-03-23T02:57:26.705Z,101601.08
2019-03-23T02:59:52.848Z,101596.22
2019-03-23T03:02:19.112Z,101604.69
2019-03-23T03:04:45.633Z,101606.83
2019-03-23T03:07:11.828Z,101606.67
2019-03-23T03:09:38.088Z,101602.97
2019-03-23T03:12:04.432Z,101603.73
2019-03-23T03:14:30.316Z,101602.81
2019-03-23T03:16:56.369Z,101604.41
2019-03-23T03:19:22.457Z,101601.38
2019-03-23T03:21:48.462Z,101605.84
2019-03-23T03:24:14.603Z,101610.67
2019-03-23T03:26:40.413Z,101611.59
2019-03-23T03:29:06.458Z,101607.41
2019-03-23T03:31:32.359Z,101604.53
2019-03-23T03:33:58.445Z,101605.93
2019-03-23T03:36:24.534Z,101609.33
2019-03-23T03:38:50.482Z,101611.06
2019-03-23T03:41:16.624Z,101616.13
2019-03-23T03:43:42.672Z,101612.98
2019-03-23T03:46:08.613Z,101617.61
2019-03-23T03:48:34.738Z,101614.22
2019-03-23T03:51:00.814Z,101613.97
2019-03-23T03:53:26.982Z,101613.47
2019-03-23T03:55:53.027Z,101622.32
2019-03-23T03:58:18.833Z,101616.70
2019-03-23T04:00:44.993Z,101624.66
2019-03-23T04:03:11.153Z,101614.94
2019-03-23T04:05:37.017Z,101621.52
2019-03-23T04:08:10.866Z,101619.81
2019-03-23T04:10:31.154Z,101627.38
2019-03-23T04:12:57.757Z,101627.13
2019-03-23T04:15:23.831Z,101632.45
2019-03-23T04:17:49.898Z,101628.77
2019-03-23T04:20:15.724Z,101631.06
2019-03-23T04:22:41.775Z,101636.77
2019-03-23T04:25:09.032Z,101646.14
2019-03-23T04:27:35.098Z,101648.84
2019-03-23T04:30:04.291Z,101642.86
2019-03-23T04:32:30.339Z,101637.89
2019-03-23T04:34:56.402Z,101635.05
2019-03-23T04:37:22.627Z,101639.38
2019-03-23T04:39:48.684Z,101638.25
2019-03-23T04:42:14.619Z,101637.26
2019-03-23T04:44:40.694Z,101633.70
2019-03-23T04:47:06.778Z,101628.02
2019-03-23T04:49:32.637Z,101627.74
2019-03-23T04:51:58.464Z,101632.76
2019-03-23T04:54:24.790Z,101629.66
2019-03-23T04:56:50.624Z,101631.46
2019-03-23T04:59:16.712Z,101632.63
2019-03-23T05:01:42.654Z,101628.80
2019-03-23T05:04:08.820Z,101627.74
2019-03-23T05:06:34.902Z,101628.12
2019-03-23T05:09:01.052Z,101630.20
2019-03-23T05:11:27.156Z,101631.56
2019-03-23T05:13:53.247Z,101647.04
2019-03-23T05:16:19.168Z,101647.89
2019-03-23T05:18:45.269Z,101639.55
2019-03-23T05:21:11.596Z,101641.83
2019-03-23T05:23:38.406Z,101635.97
2019-03-23T05:26:04.575Z,101639.77
2019-03-23T05:28:31.002Z,101646.33
2019-03-23T05:30:57.444Z,101645.97
2019-03-23T05:33:23.664Z,101654.02
2019-03-23T05:35:49.754Z,101654.02
2019-03-23T05:38:15.984Z,101658.27
2019-03-23T05:40:41.815Z,101654.36
2019-03-23T05:43:07.707Z,101653.98
2019-03-23T05:45:33.769Z,101653.18
2019-03-23T05:47:59.864Z,101652.35
2019-03-23T05:50:25.707Z,101652.05
2019-03-23T05:52:51.890Z,101660.86
2019-03-23T05:55:17.860Z,101658.03
2019-03-23T05:57:43.754Z,101660.97
2019-03-23T06:00:11.834Z,101669.12
2019-03-23T06:02:37.982Z,101670.86
2019-03-23T06:05:05.403Z,101671.29
2019-03-23T06:07:31.512Z,101672.42
2019-03-23T06:09:57.656Z,101678.22
2019-03-23T06:12:24.011Z,101679.06
2019-03-23T06:14:50.119Z,101676.77
2019-03-23T06:17:16.256Z,101684.08
2019-03-23T06:19:42.306Z,101684.63
2019-03-23T06:22:08.190Z,101684.63
2019-03-23T06:24:34.518Z,101685.34
2019-03-23T06:27:00.582Z,101686.45
2019-03-23T06:29:26.761Z,101686.27
2019-03-23T06:31:52.884Z,101687.70
2019-03-23T06:34:19.256Z,101690.55
2019-03-23T06:36:45.456Z,101688.59
2019-03-23T06:39:11.908Z,101689.59
2019-03-23T06:41:37.985Z,101686.52
2019-03-23T06:44:04.011Z,101692.78
2019-03-23T06:46:30.152Z,101699.47
2019-03-23T06:48:56.633Z,101700.45
2019-03-23T06:51:22.748Z,101707.87
2019-03-23T06:53:48.854Z,101700.98
2019-03-23T06:56:15.294Z,101701.65
2019-03-23T06:58:41.383Z,101701.77
2019-03-23T07:01:07.472Z,101702.72
2019-03-23T07:03:33.560Z,101702.25
2019-03-23T07:06:00.009Z,101706.28
2019-03-23T07:08:31.792Z,101704.78
2019-03-23T07:10:54.209Z,101710.75
2019-03-23T07:13:20.404Z,101708.48
2019-03-23T07:15:46.540Z,101710.42
2019-03-23T07:18:12.647Z,101714.92
2019-03-23T07:20:38.803Z,101708.00
2019-03-23T07:23:05.186Z,101708.58
2019-03-23T07:25:31.295Z,101704.27
2019-03-23T07:27:57.582Z,101703.11
2019-03-23T07:30:24.015Z,101701.56
2019-03-23T07:32:50.188Z,101700.27
2019-03-23T07:35:16.995Z,101711.80
2019-03-23T07:37:43.443Z,101711.53
2019-03-23T07:40:10.892Z,101719.20
2019-03-23T07:42:37.064Z,101722.73
2019-03-23T07:45:05.956Z,101722.94
2019-03-23T07:47:32.010Z,101725.86
2019-03-23T07:49:58.076Z,101721.97
2019-03-23T07:52:24.580Z,101725.53
2019-03-23T07:54:50.730Z,101724.90
2019-03-23T07:57:16.892Z,101727.79
2019-03-23T07:59:43.285Z,101738.03
2019-03-23T08:02:09.432Z,101733.78
2019-03-23T08:04:35.602Z,101736.62
2019-03-23T08:07:01.937Z,101738.80
2019-03-23T08:09:37.366Z,101739.13
2019-03-23T08:11:55.842Z,101731.50
2019-03-23T08:14:21.858Z,101738.52
2019-03-23T08:16:48.119Z,101736.17
2019-03-23T08:19:14.232Z,101733.38
2019-03-23T08:21:40.248Z,101724.20
2019-03-23T08:24:06.414Z,101730.14
2019-03-23T08:26:32.534Z,101736.25
2019-03-23T08:28:59.033Z,101733.48
2019-03-23T08:31:25.182Z,101729.83
2019-03-23T08:33:52.181Z,101733.30
2019-03-23T08:36:18.393Z,101720.55
2019-03-23T08:38:44.563Z,101729.89
2019-03-23T08:41:11.100Z,101733.57
2019-03-23T08:43:37.235Z,101727.45
2019-03-23T08:46:03.403Z,101728.98
2019-03-23T08:48:29.527Z,101717.53
2019-03-23T08:50:55.655Z,101721.17
2019-03-23T08:53:22.112Z,101715.69
2019-03-23T08:55:48.455Z,101721.80
2019-03-23T08:58:14.636Z,101717.87
2019-03-23T09:00:40.759Z,101713.28
2019-03-23T09:03:06.878Z,101706.34
2019-03-23T09:05:33.387Z,101712.81
2019-03-23T09:07:59.488Z,101708.08
2019-03-23T09:10:25.655Z,101708.69
2019-03-23T09:12:51.865Z,101705.91
2019-03-23T09:15:17.724Z,101709.09
2019-03-23T09:17:43.947Z,101708.44
2019-03-23T09:20:10.656Z,101709.80
2019-03-23T09:22:36.931Z,101702.73
2019-03-23T09:25:04.520Z,101706.42
2019-03-23T09:27:30.573Z,101705.45
2019-03-23T09:29:56.684Z,101716.31
2019-03-23T09:32:22.493Z,101709.53
2019-03-23T09:34:49.118Z,101712.60
2019-03-23T09:37:15.252Z,101704.41
2019-03-23T09:39:41.399Z,101697.56
2019-03-23T09:42:09.608Z,101692.33
2019-03-23T09:44:36.210Z,101692.37
2019-03-23T09:47:05.449Z,101698.19
2019-03-23T09:49:31.610Z,101693.73
2019-03-23T09:51:58.152Z,101698.93
2019-03-23T09:54:26.896Z,101697.52
2019-03-23T09:56:52.700Z,101698.30
2019-03-23T09:59:18.807Z,101690.08
2019-03-23T10:01:44.915Z,101691.23
2019-03-23T10:04:11.239Z,101682.14
2019-03-23T10:06:37.120Z,101681.30
2019-03-23T10:09:06.582Z,101686.86
2019-03-23T10:11:32.746Z,101687.31
2019-03-23T10:13:59.240Z,101690.80
2019-03-23T10:16:25.392Z,101687.67
2019-03-23T10:18:51.457Z,101693.05
2019-03-23T10:21:17.510Z,101691.82
2019-03-23T10:23:43.951Z,101681.58
2019-03-23T10:26:10.118Z,101675.64
2019-03-23T10:28:36.246Z,101672.49
2019-03-23T10:31:02.214Z,101673.70
2019-03-23T10:33:28.507Z,101677.73
2019-03-23T10:35:54.679Z,101667.49
2019-03-23T10:38:20.802Z,101670.45
2019-03-23T10:40:48.242Z,101667.06
2019-03-23T10:43:14.368Z,101662.40
2019-03-23T10:45:44.455Z,101662.66
2019-03-23T10:48:08.715Z,101655.91
2019-03-23T10:50:35.176Z,101668.72
2019-03-23T10:53:01.048Z,101677.55
2019-03-23T10:55:27.135Z,101678.78
2019-03-23T10:57:52.966Z,101688.77
2019-03-23T11:00:19.113Z,101682.48
2019-03-23T11:02:45.637Z,101681.73
2019-03-23T11:05:12.192Z,101682.32
2019-03-23T11:07:38.803Z,101680.13
2019-03-23T11:10:07.628Z,101677.23
2019-03-23T11:12:34.017Z,101672.38
2019-03-23T11:15:00.305Z,101676.17
2019-03-23T11:17:26.767Z,101672.72
2019-03-23T11:19:52.690Z,101666.75
2019-03-23T11:22:18.879Z,101674.05
2019-03-23T11:24:44.767Z,101676.34
2019-03-23T11:27:10.976Z,101668.41
2019-03-23T11:29:36.864Z,101666.13
2019-03-23T11:32:02.988Z,101668.45
2019-03-23T11:34:29.202Z,101666.52
2019-03-23T11:36:55.696Z,101671.40
2019-03-23T11:39:21.944Z,101668.36
2019-03-23T11:41:47.994Z,101665.55
2019-03-23T11:44:14.155Z,101657.19
2019-03-23T11:46:40.129Z,101654.08
2019-03-23T11:49:06.211Z,101663.16
2019-03-23T11:51:32.186Z,101674.63
2019-03-23T11:53:58.387Z,101671.56
2019-03-23T11:56:24.675Z,101667.20
2019-03-23T11:58:50.983Z,101665.63
2019-03-23T12:01:17.618Z,101663.64
2019-03-23T12:03:45.681Z,101659.06
2019-03-23T12:06:11.956Z,101666.17
2019-03-23T12:08:37.689Z,101661.59
2019-03-23T12:11:03.995Z,101662.54
2019-03-23T12:13:30.454Z,101653.02
2019-03-23T12:17:05.260Z,101644.19
2019-03-23T12:19:33.977Z,101633.80
2019-03-23T12:22:02.634Z,101631.36
2019-03-23T12:24:31.277Z,101621.41
2019-03-23T12:27:00.041Z,101616.19
2019-03-23T12:29:28.797Z,101620.58
2019-03-23T12:31:57.481Z,101620.16
2019-03-23T12:34:26.200Z,101606.77
2019-03-23T12:36:54.956Z,101610.35
2019-03-23T12:39:23.412Z,101607.74
2019-03-23T12:41:51.861Z,101609.65
2019-03-23T12:44:20.456Z,101607.96
2019-03-23T12:46:48.892Z,101608.11
2019-03-23T12:49:17.389Z,101606.19
2019-03-23T12:51:46.105Z,101609.56
2019-03-23T12:54:14.835Z,101603.08
2019-03-23T12:56:43.698Z,101603.08
2019-03-23T12:59:12.396Z,101605.57
2019-03-23T13:01:41.136Z,101601.06
2019-03-23T13:04:09.551Z,101604.91
2019-03-23T13:06:38.025Z,101600.75
2019-03-23T13:09:07.682Z,101599.41
2019-03-23T13:11:36.365Z,101592.84
2019-03-23T13:14:05.078Z,101594.41
2019-03-23T13:16:33.720Z,101601.47
2019-03-23T13:19:02.579Z,101592.91
2019-03-23T13:21:31.339Z,101594.98
2019-03-23T13:24:00.206Z,101595.34
2019-03-23T13:26:28.988Z,101580.70
2019-03-23T13:28:57.659Z,101574.14
2019-03-23T13:31:26.533Z,101576.56
2019-03-23T13:33:55.380Z,101576.70
2019-03-23T13:36:24.094Z,101573.28
2019-03-23T13:38:52.939Z,101576.14
2019-03-23T13:41:21.599Z,101575.76
2019-03-23T13:43:50.377Z,101572.88
2019-03-23T13:46:18.913Z,101567.86
2019-03-23T13:48:47.553Z,101569.77
2019-03-23T13:51:15.966Z,101569.50
2019-03-23T13:53:44.743Z,101569.88
2019-03-23T13:56:13.733Z,101563.72
2019-03-23T13:58:42.219Z,101558.19
2019-03-23T14:01:10.629Z,101559.43
2019-03-23T14:03:39.395Z,101557.94
2019-03-23T14:06:07.842Z,101555.89
2019-03-23T14:08:36.292Z,101557.44
2019-03-23T14:11:05.206Z,101559.64
2019-03-23T14:13:34.014Z,101554.76
2019-03-23T14:16:02.579Z,101548.56
2019-03-23T14:18:31.016Z,101548.46
2019-03-23T14:20:59.667Z,101548.91
2019-03-23T14:23:28.226Z,101547.60
2019-03-23T14:25:56.885Z,101551.83
2019-03-23T14:28:25.322Z,101547.39
2019-03-23T14:30:54.161Z,101545.14
2019-03-23T14:33:23.595Z,101552.67
2019-03-23T14:35:52.125Z,101552.67
2019-03-23T14:38:20.526Z,101545.98
2019-03-23T14:40:49.097Z,101547.25
2019-03-23T14:43:17.544Z,101549.50
2019-03-23T14:45:45.999Z,101544.98
2019-03-23T14:48:14.661Z,101543.74
2019-03-23T14:50:43.231Z,101543.45
2019-03-23T14:53:11.800Z,101545.84
2019-03-23T14:55:40.247Z,101542.67
2019-03-23T14:58:08.998Z,101542.02
2019-03-23T15:00:38.068Z,101538.00
2019-03-23T15:03:06.956Z,101541.90
2019-03-23T15:05:35.539Z,101542.91
2019-03-23T15:08:04.020Z,101537.59
2019-03-23T15:10:32.451Z,101540.80
2019-03-23T15:13:01.156Z,101540.34
2019-03-23T15:15:29.611Z,101537.71
2019-03-23T15:17:58.086Z,101535.61
2019-03-23T15:20:26.511Z,101540.52
2019-03-23T15:22:54.936Z,101539.08
2019-03-23T15:25:23.401Z,101541.50
2019-03-23T15:27:51.804Z,101542.69
2019-03-23T15:30:20.611Z,101547.26
2019-03-23T15:32:49.137Z,101547.64
2019-03-23T15:35:17.824Z,101549.16
2019-03-23T15:37:46.277Z,101542.84
2019-03-23T15:40:15.418Z,101545.89
2019-03-23T15:42:44.093Z,101546.78
2019-03-23T15:45:12.653Z,101546.47
2019-03-23T15:47:41.386Z,101547.04
2019-03-23T15:50:10.066Z,101548.91
2019-03-23T15:52:38.875Z,101552.01
2019-03-23T15:55:07.937Z,101556.77
2019-03-23T15:57:36.949Z,101571.58
2019-03-23T16:00:10.833Z,101565.45
2019-03-23T16:02:39.246Z,101562.98
2019-03-23T16:05:08.835Z,101571.59
2019-03-23T16:07:37.508Z,101572.85
2019-03-23T16:10:08.251Z,101577.05
2019-03-23T16:12:37.787Z,101577.92
2019-03-23T16:15:09.093Z,101573.90
2019-03-23T16:17:37.531Z,101574.94
2019-03-23T16:20:09.311Z,101572.92
2019-03-23T16:22:37.758Z,101576.97
2019-03-23T16:25:07.711Z,101574.28
2019-03-23T16:27:36.172Z,101577.36
2019-03-23T16:30:07.624Z,101580.55
2019-03-23T16:32:36.763Z,101579.53
2019-03-23T16:35:07.551Z,101581.74
2019-03-23T16:37:36.046Z,101587.11
2019-03-23T16:40:08.236Z,101593.48
2019-03-23T16:42:44.691Z,101602.89
2019-03-23T16:45:09.675Z,101603.39
2019-03-23T16:47:38.823Z,101603.16
2019-03-23T16:50:08.622Z,101607.54
2019-03-23T16:52:38.555Z,101610.21
2019-03-23T16:55:09.213Z,101604.84
2019-03-23T16:57:37.686Z,101608.86
2019-03-23T17:00:09.079Z,101609.66
2019-03-23T17:02:37.788Z,101614.18
2019-03-23T17:05:07.364Z,101617.37
2019-03-23T17:07:35.985Z,101615.21
2019-03-23T17:10:06.170Z,101615.86
2019-03-23T17:12:35.034Z,101619.73
2019-03-23T17:15:06.080Z,101622.91
2019-03-23T17:17:34.702Z,101622.05
2019-03-23T17:20:03.627Z,101622.53
2019-03-23T17:22:32.211Z,101623.34
2019-03-23T17:25:00.899Z,101628.84
2019-03-23T17:27:29.610Z,101631.83
2019-03-23T17:29:58.152Z,101636.47
2019-03-23T17:32:26.887Z,101639.46
2019-03-23T17:34:55.514Z,101640.11
2019-03-23T17:37:24.225Z,101641.56
2019-03-23T17:39:52.789Z,101650.02
2019-03-23T17:42:21.573Z,101654.98
2019-03-23T17:44:50.303Z,101656.96
2019-03-23T17:47:18.929Z,101658.15
2019-03-23T17:49:47.552Z,101658.35
2019-03-23T17:52:16.157Z,101664.05
2019-03-23T17:54:44.593Z,101663.31
2019-03-23T17:57:13.036Z,101665.93
2019-03-23T17:59:41.639Z,101666.72
2019-03-23T18:02:10.599Z,101673.20
2019-03-23T18:04:39.295Z,101679.50
2019-03-23T18:07:07.961Z,101681.45
2019-03-23T18:09:36.811Z,101690.75
2019-03-23T18:12:05.445Z,101692.38
2019-03-23T18:14:33.863Z,101698.86
2019-03-23T18:17:02.627Z,101695.27
2019-03-23T18:19:31.373Z,101695.70
2019-03-23T18:22:00.185Z,101698.88
2019-03-23T18:24:28.636Z,101702.80
2019-03-23T18:26:57.223Z,101708.33
2019-03-23T18:29:25.958Z,101703.48
2019-03-23T18:31:54.398Z,101703.70
2019-03-23T18:34:22.984Z,101706.38
2019-03-23T18:36:52.202Z,101716.78
2019-03-23T18:39:20.841Z,101715.24
2019-03-23T18:41:49.605Z,101721.52
2019-03-23T18:44:18.039Z,101719.19
2019-03-23T18:46:46.718Z,101717.03
2019-03-23T18:49:15.553Z,101724.55
2019-03-23T18:51:44.375Z,101734.33
2019-03-23T18:54:12.824Z,101732.12
2019-03-23T18:56:41.469Z,101740.77
2019-03-23T18:59:10.294Z,101734.23
2019-03-23T19:01:38.715Z,101737.77
2019-03-23T19:04:07.218Z,101738.73
2019-03-23T19:06:35.983Z,101736.16
2019-03-23T19:09:07.279Z,101741.54
2019-03-23T19:11:36.062Z,101736.86
2019-03-23T19:14:04.683Z,101739.88
2019-03-23T19:16:33.395Z,101740.80
2019-03-23T19:19:01.821Z,101734.71
2019-03-23T19:21:30.301Z,101736.60
2019-03-23T19:24:17.509Z,101737.89
2019-03-23T19:26:45.977Z,101734.75
2019-03-23T19:29:14.667Z,101740.62
2019-03-23T19:31:43.095Z,101743.39
2019-03-23T19:34:11.910Z,101742.42
2019-03-23T19:36:40.336Z,101739.00
2019-03-23T19:39:09.337Z,101743.20
2019-03-23T19:41:38.038Z,101744.89
2019-03-23T19:44:06.511Z,101742.53
2019-03-23T19:46:34.931Z,101744.84
2019-03-23T19:49:03.418Z,101743.64
2019-03-23T19:51:31.861Z,101742.77
2019-03-23T19:54:00.389Z,101743.20
2019-03-23T19:56:29.167Z,101739.50
2019-03-23T19:58:57.592Z,101745.52
2019-03-23T20:01:26.381Z,101739.83
2019-03-23T20:03:55.551Z,101741.39
2019-03-23T20:06:24.123Z,101743.48
2019-03-23T20:08:52.952Z,101737.08
2019-03-23T20:11:21.402Z,101744.41
2019-03-23T20:13:58.442Z,101738.91
2019-03-23T20:16:20.029Z,101743.20
2019-03-23T20:18:48.465Z,101743.47
2019-03-23T20:21:17.008Z,101744.53
2019-03-23T20:23:45.504Z,101740.58
2019-03-23T20:26:14.151Z,101738.84
2019-03-23T20:28:42.597Z,101736.09
2019-03-23T20:31:11.123Z,101740.66
2019-03-23T20:33:39.579Z,101740.80
2019-03-23T20:36:08.010Z,101739.69
2019-03-23T20:38:36.541Z,101743.95
2019-03-23T20:41:05.066Z,101744.53
2019-03-23T20:43:33.655Z,101745.64
2019-03-23T20:46:02.414Z,101741.76
2019-03-23T20:48:30.895Z,101742.77
2019-03-23T20:50:59.403Z,101739.39
2019-03-23T20:53:28.405Z,101745.96
2019-03-23T20:55:56.895Z,101744.85
2019-03-23T20:58:25.570Z,101738.81
2019-03-23T21:00:54.060Z,101739.66
2019-03-23T21:03:22.505Z,101736.57
2019-03-23T21:05:50.942Z,101736.42
2019-03-23T21:08:19.383Z,101734.88
2019-03-23T21:10:47.834Z,101737.10
2019-03-23T21:13:16.306Z,101741.23
2019-03-23T21:15:44.724Z,101733.79
2019-03-23T21:18:13.205Z,101727.75
2019-03-23T21:20:41.866Z,101724.33
2019-03-23T21:23:10.413Z,101724.06
2019-03-23T21:25:39.069Z,101724.27
2019-03-23T21:28:07.573Z,101728.10
2019-03-23T21:30:36.125Z,101726.25
2019-03-23T21:33:04.726Z,101728.46
2019-03-23T21:35:33.210Z,101733.86
2019-03-23T21:38:01.853Z,101727.27
2019-03-23T21:40:31.151Z,101730.06
2019-03-23T21:42:59.822Z,101730.74
2019-03-23T21:45:28.318Z,101727.45
2019-03-23T21:47:56.736Z,101729.86
2019-03-23T21:50:25.213Z,101729.50
2019-03-23T21:52:53.625Z,101721.00
2019-03-23T21:55:22.048Z,101722.16
2019-03-23T21:57:50.582Z,101712.81
2019-03-23T22:00:33.188Z,101719.02
2019-03-23T22:03:02.033Z,101711.15
2019-03-23T22:05:30.489Z,101713.23
2019-03-23T22:07:59.160Z,101709.66
2019-03-23T22:10:27.746Z,101701.63
2019-03-23T22:12:56.386Z,101703.26
2019-03-23T22:15:25.024Z,101691.56
2019-03-23T22:17:53.747Z,101697.05
2019-03-23T22:20:22.438Z,101687.66
2019-03-23T22:22:50.986Z,101690.72
2019-03-23T22:25:19.606Z,101690.84
2019-03-23T22:27:48.081Z,101682.14
2019-03-23T22:30:17.467Z,101681.88
2019-03-23T22:32:46.012Z,101673.53
2019-03-23T22:35:14.674Z,101679.73
2019-03-23T22:37:43.387Z,101675.64
2019-03-23T22:40:13.554Z,101675.28
2019-03-23T22:42:42.163Z,101683.53
2019-03-23T22:45:11.599Z,101680.61
2019-03-23T22:47:40.532Z,101668.14
2019-03-23T22:50:09.865Z,101666.33
2019-03-23T22:52:38.531Z,101667.17
2019-03-23T22:55:07.894Z,101666.94
2019-03-23T22:57:36.493Z,101660.28
2019-03-23T23:00:16.149Z,101658.11
2019-03-23T23:02:44.970Z,101657.20
2019-03-23T23:05:13.610Z,101657.33
2019-03-23T23:07:42.431Z,101659.27
2019-03-23T23:10:11.456Z,101649.41
2019-03-23T23:12:39.905Z,101650.98
2019-03-23T23:15:08.604Z,101653.39
2019-03-23T23:17:37.047Z,101647.42
2019-03-23T23:20:07.679Z,101646.28
2019-03-23T23:22:36.091Z,101645.44
2019-03-23T23:25:07.354Z,101641.22
2019-03-23T23:27:36.375Z,101642.97
2019-03-23T23:30:07.521Z,101644.16
2019-03-23T23:32:36.056Z,101643.19
2019-03-23T23:35:09.010Z,101645.86
2019-03-23T23:37:37.610Z,101638.72
2019-03-23T23:40:08.146Z,101650.82
2019-03-23T23:42:36.991Z,101637.95
2019-03-23T23:45:15.397Z,101634.70
2019-03-23T23:47:37.820Z,101637.23
2019-03-23T23:50:08.171Z,101630.88
2019-03-23T23:52:36.961Z,101630.59
2019-03-23T23:55:07.261Z,101629.97
2019-03-23T23:57:36.055Z,101628.83
